Time;durP1;ratioP1;P1;durP2;ratioP2;P2;SDS_P1;SDS_P2;PMS_P1;PMS_P2;Temp;Humidity;BMP_temperature;BMP_pressure;BME280_temperature;BME280_humidity;BME280_pressure;Samples;Min_cycle;Max_cycle;Signal;HPM_P1;HPM_P2
2022/01/22 00:00:12;;;;;;;42.03;27.33;;;;;;;;;;5065791;28;20526;-83
2022/01/22 00:02:39;;;;;;;41.30;27.35;;;;;;;;;;5065889;28;20414;-82
2022/01/22 00:05:08;;;;;;;40.97;27.42;;;;;;;;;;5065657;28;20455;-83
2022/01/22 00:07:37;;;;;;;40.55;27.25;;;;;;;;;;5065590;28;20941;-83
2022/01/22 00:10:07;;;;;;;37.45;26.77;;;;;;;;;;5065905;28;20397;-82
2022/01/22 00:13:06;;;;;;;38.75;26.67;;;;;;;;;;5062292;28;20747;-83
2022/01/22 00:15:33;;;;;;;42.13;28.10;;;;;;;;;;5065289;28;20737;-83
2022/01/22 00:17:59;;;;;;;41.70;27.23;;;;;;;;;;5065957;28;20408;-82
2022/01/22 00:20:29;;;;;;;40.95;27.85;;;;;;;;;;5065604;28;20754;-83
2022/01/22 00:22:57;;;;;;;40.05;27.67;;;;;;;;;;5066135;28;20480;-82
2022/01/22 00:25:24;;;;;;;41.17;27.33;;;;;;;;;;5065343;28;20484;-82
2022/01/22 00:27:52;;;;;;;39.38;27.73;;;;;;;;;;5066316;28;20932;-83
2022/01/22 00:30:21;;;;;;;41.40;27.50;;;;;;;;;;5065868;28;20401;-82
2022/01/22 00:32:48;;;;;;;43.20;27.48;;;;;;;;;;5065823;28;20497;-81
2022/01/22 00:35:15;;;;;;;44.00;27.70;;;;;;;;;;5066006;28;20394;-82
2022/01/22 00:37:43;;;;;;;43.80;28.00;;;;;;;;;;5067460;28;20398;-82
2022/01/22 00:40:13;;;;;;;40.47;27.45;;;;;;;;;;5072431;28;20374;-82
2022/01/22 00:42:40;;;;;;;46.53;30.42;;;;;;;;;;5088076;28;20720;-82
2022/01/22 00:45:08;;;;;;;46.85;29.92;;;;;;;;;;5068116;28;20456;-82
2022/01/22 00:47:35;;;;;;;48.50;31.38;;;;;;;;;;5065009;28;20475;-83
2022/01/22 00:50:02;;;;;;;48.45;31.27;;;;;;;;;;5061470;28;20398;-82
2022/01/22 00:52:29;;;;;;;50.00;32.78;;;;;;;;;;5064131;28;20421;-82
2022/01/22 00:54:56;;;;;;;45.07;31.37;;;;;;;;;;5060663;28;20479;-82
2022/01/22 00:57:24;;;;;;;46.83;32.05;;;;;;;;;;5063348;28;20409;-82
2022/01/22 00:59:51;;;;;;;50.10;32.08;;;;;;;;;;5064164;28;20954;-82
2022/01/22 01:02:18;;;;;;;47.92;31.50;;;;;;;;;;5064737;28;20405;-82
2022/01/22 01:04:45;;;;;;;48.20;31.35;;;;;;;;;;5065000;28;20402;-82
2022/01/22 01:07:11;;;;;;;42.92;28.42;;;;;;;;;;5064690;28;20402;-83
2022/01/22 01:09:39;;;;;;;45.95;29.25;;;;;;;;;;5064641;28;20394;-82
2022/01/22 01:12:11;;;;;;;44.90;29.73;;;;;;;;;;5064109;28;20402;-82
2022/01/22 01:14:44;;;;;;;44.88;29.33;;;;;;;;;;5064660;28;20425;-82
2022/01/22 01:17:29;;;;;;;43.85;29.77;;;;;;;;;;5064860;28;20445;-82
2022/01/22 01:33:58;;;;;;;43.60;28.47;;;;;;;;;;5063965;28;20441;-82
2022/01/22 01:36:24;;;;;;;41.77;27.80;;;;;;;;;;5063994;28;20398;-82
2022/01/22 01:38:55;;;;;;;42.95;27.90;;;;;;;;;;5064563;28;20858;-82
2022/01/22 01:41:29;;;;;;;42.63;28.13;;;;;;;;;;5064000;28;20862;-82
2022/01/22 01:43:56;;;;;;;42.70;28.85;;;;;;;;;;5064692;28;20406;-82
2022/01/22 01:46:26;;;;;;;43.10;28.55;;;;;;;;;;5063976;28;20402;-82
2022/01/22 01:48:53;;;;;;;45.65;29.58;;;;;;;;;;5064391;28;20394;-82
2022/01/22 01:51:23;;;;;;;43.80;28.00;;;;;;;;;;5064450;28;20429;-82
2022/01/22 01:53:57;;;;;;;47.70;29.00;;;;;;;;;;5064616;28;20830;-82
2022/01/22 01:59:10;;;;;;;43.42;28.70;;;;;;;;;;5064188;28;20397;-82
2022/01/22 02:01:38;;;;;;;42.73;29.07;;;;;;;;;;5063970;28;20445;-82
2022/01/22 02:04:08;;;;;;;36.42;25.33;;;;;;;;;;5062764;28;20402;-82
2022/01/22 02:06:35;;;;;;;40.80;26.60;;;;;;;;;;5064282;28;20412;-82
2022/01/22 02:09:02;;;;;;;40.28;26.55;;;;;;;;;;5068150;28;20406;-82
2022/01/22 02:11:29;;;;;;;40.33;25.60;;;;;;;;;;5067558;28;20405;-82
2022/01/22 02:14:06;;;;;;;37.63;25.20;;;;;;;;;;5067912;28;20882;-82
2022/01/22 02:24:53;;;;;;;40.03;23.80;;;;;;;;;;5066612;28;20443;-82
2022/01/22 02:27:20;;;;;;;35.53;24.23;;;;;;;;;;5067181;28;20432;-82
2022/01/22 02:29:48;;;;;;;37.72;24.40;;;;;;;;;;5067573;28;20409;-83
2022/01/22 02:32:46;;;;;;;36.00;23.90;;;;;;;;;;5067665;28;20420;-82
2022/01/22 02:35:18;;;;;;;38.33;24.17;;;;;;;;;;5067156;28;20846;-82
2022/01/22 02:37:53;;;;;;;35.78;24.20;;;;;;;;;;5067293;28;21079;-82
2022/01/22 02:40:25;;;;;;;36.80;24.05;;;;;;;;;;5067262;28;20426;-82
2022/01/22 02:42:52;;;;;;;36.47;23.60;;;;;;;;;;5067778;28;20954;-82
2022/01/22 02:45:22;;;;;;;34.10;22.70;;;;;;;;;;5066949;28;20401;-82
2022/01/22 02:47:49;;;;;;;34.83;23.10;;;;;;;;;;5067049;28;20953;-82
2022/01/22 02:50:16;;;;;;;37.03;22.15;;;;;;;;;;5067226;28;20398;-82
2022/01/22 02:52:43;;;;;;;34.65;22.08;;;;;;;;;;5066772;28;20405;-82
2022/01/22 02:55:13;;;;;;;33.95;23.38;;;;;;;;;;5066869;28;20469;-82
2022/01/22 02:57:41;;;;;;;34.22;22.80;;;;;;;;;;5066049;28;20489;-82
2022/01/22 03:00:11;;;;;;;32.88;21.80;;;;;;;;;;5066800;28;20402;-82
2022/01/22 03:02:38;;;;;;;32.00;22.25;;;;;;;;;;5067848;28;20493;-81
2022/01/22 03:05:06;;;;;;;32.28;22.15;;;;;;;;;;5067639;28;20862;-82
2022/01/22 03:07:33;;;;;;;33.33;22.58;;;;;;;;;;5067525;28;20484;-82
2022/01/22 03:10:03;;;;;;;33.58;23.25;;;;;;;;;;5063613;28;20895;-82
2022/01/22 03:18:09;;;;;;;34.60;22.87;;;;;;;;;;5064495;28;20401;-82
2022/01/22 03:20:49;;;;;;;34.23;22.33;;;;;;;;;;5064793;28;20455;-82
2022/01/22 03:28:53;;;;;;;33.70;21.73;;;;;;;;;;5085533;28;20505;-82
2022/01/22 03:31:21;;;;;;;32.13;21.88;;;;;;;;;;5097810;28;20477;-82
2022/01/22 03:33:48;;;;;;;33.20;21.67;;;;;;;;;;5083042;28;20436;-81
2022/01/22 03:36:14;;;;;;;35.15;22.30;;;;;;;;;;5076335;28;20396;-82
2022/01/22 03:38:41;;;;;;;36.50;22.90;;;;;;;;;;5075266;28;20406;-82
2022/01/22 03:41:08;;;;;;;33.57;22.30;;;;;;;;;;5077405;28;20466;-82
2022/01/22 03:43:36;;;;;;;33.95;22.33;;;;;;;;;;5074895;28;20397;-82
2022/01/22 03:46:04;;;;;;;34.00;21.98;;;;;;;;;;5078391;28;20453;-82
2022/01/22 03:48:31;;;;;;;34.35;22.20;;;;;;;;;;5071160;28;20402;-82
2022/01/22 03:50:58;;;;;;;33.92;22.02;;;;;;;;;;5078222;28;20446;-82
2022/01/22 03:53:24;;;;;;;29.35;21.70;;;;;;;;;;5074175;28;20407;-82
2022/01/22 03:56:01;;;;;;;32.92;21.58;;;;;;;;;;5075985;28;20917;-82
2022/01/22 03:58:29;;;;;;;34.27;22.23;;;;;;;;;;5077744;28;20880;-82
2022/01/22 04:01:14;;;;;;;34.67;22.47;;;;;;;;;;5076116;28;20487;-82
2022/01/22 04:03:45;;;;;;;33.83;22.02;;;;;;;;;;5072822;28;20414;-82
2022/01/22 04:09:00;;;;;;;32.55;21.33;;;;;;;;;;5071950;28;20407;-82
2022/01/22 04:11:27;;;;;;;32.55;21.33;;;;;;;;;;5074819;28;20563;-82
2022/01/22 04:14:00;;;;;;;32.15;21.30;;;;;;;;;;5077463;28;20406;-83
2022/01/22 04:16:27;;;;;;;32.40;20.40;;;;;;;;;;5074635;28;20479;-82
2022/01/22 04:27:11;;;;;;;28.63;19.70;;;;;;;;;;5061994;28;20485;-82
2022/01/22 04:29:38;;;;;;;33.42;20.00;;;;;;;;;;5065405;28;20406;-82
2022/01/22 04:32:07;;;;;;;33.95;20.90;;;;;;;;;;5065628;28;20908;-82
2022/01/22 04:34:35;;;;;;;31.50;20.90;;;;;;;;;;5065600;28;20421;-82
2022/01/22 04:37:02;;;;;;;34.28;22.17;;;;;;;;;;5062013;28;20406;-82
2022/01/22 04:39:28;;;;;;;34.35;21.50;;;;;;;;;;5064999;28;20428;-82
2022/01/22 04:41:56;;;;;;;34.92;22.05;;;;;;;;;;5065806;28;20451;-82
2022/01/22 04:44:26;;;;;;;32.60;21.52;;;;;;;;;;5065215;28;20414;-82
2022/01/22 04:47:00;;;;;;;32.05;21.33;;;;;;;;;;5065422;28;20401;-82
2022/01/22 04:52:37;;;;;;;36.42;25.23;;;;;;;;;;5063206;28;20389;-82
2022/01/22 04:55:04;;;;;;;32.38;22.20;;;;;;;;;;5062119;28;20845;-82
2022/01/22 04:57:33;;;;;;;34.20;21.35;;;;;;;;;;5061166;28;20477;-81
2022/01/22 05:00:01;;;;;;;32.33;21.10;;;;;;;;;;5065192;28;20789;-82
2022/01/22 05:02:27;;;;;;;32.85;21.95;;;;;;;;;;5064793;28;20402;-82
2022/01/22 05:04:54;;;;;;;31.27;20.92;;;;;;;;;;5061707;28;20418;-82
2022/01/22 05:07:22;;;;;;;31.87;21.73;;;;;;;;;;5062876;28;20869;-81
2022/01/22 05:09:49;;;;;;;29.77;21.07;;;;;;;;;;5064289;28;20445;-82
2022/01/22 05:12:16;;;;;;;30.75;20.92;;;;;;;;;;5064675;28;21385;-82
2022/01/22 05:14:43;;;;;;;30.47;21.23;;;;;;;;;;5064584;28;20426;-82
2022/01/22 05:17:10;;;;;;;32.08;20.75;;;;;;;;;;5064345;28;21098;-82
2022/01/22 05:19:46;;;;;;;33.33;20.77;;;;;;;;;;5064146;28;20766;-82
2022/01/22 05:22:23;;;;;;;30.35;19.77;;;;;;;;;;5064538;28;20402;-82
2022/01/22 05:24:56;;;;;;;32.35;19.60;;;;;;;;;;5064495;28;20406;-82
2022/01/22 05:27:40;;;;;;;31.05;20.00;;;;;;;;;;5064336;28;20410;-82
2022/01/22 05:30:15;;;;;;;33.00;19.92;;;;;;;;;;5064236;28;20399;-82
2022/01/22 05:32:58;;;;;;;30.75;20.25;;;;;;;;;;5064095;28;20398;-82
2022/01/22 05:38:09;;;;;;;29.02;19.27;;;;;;;;;;5064857;28;20421;-82
2022/01/22 05:40:38;;;;;;;31.20;20.30;;;;;;;;;;5068545;28;20878;-82
2022/01/22 05:43:05;;;;;;;30.37;20.83;;;;;;;;;;5065622;28;20406;-82
2022/01/22 05:45:32;;;;;;;29.80;20.70;;;;;;;;;;5068268;28;20808;-82
2022/01/22 05:47:58;;;;;;;29.65;20.15;;;;;;;;;;5068698;28;20401;-82
2022/01/22 05:50:30;;;;;;;31.25;20.40;;;;;;;;;;5067540;28;20597;-80
2022/01/22 05:53:01;;;;;;;32.10;20.08;;;;;;;;;;5068485;28;20424;-82
2022/01/22 05:59:35;;;;;;;29.65;19.38;;;;;;;;;;5068279;28;20434;-82
2022/01/22 06:01:14;;;;;;;32.40;19.40;;;;;;;;;;5068811;28;20397;-82
2022/01/22 06:03:41;;;;;;;32.92;19.20;;;;;;;;;;5068073;28;20406;-82
2022/01/22 06:06:08;;;;;;;31.55;19.67;;;;;;;;;;5069395;28;20406;-82
2022/01/22 06:08:41;;;;;;;33.60;19.30;;;;;;;;;;5068704;28;20813;-81
2022/01/22 06:11:09;;;;;;;32.95;20.45;;;;;;;;;;5065818;28;20406;-82
2022/01/22 06:13:46;;;;;;;31.48;20.33;;;;;;;;;;5071599;28;20393;-82
2022/01/22 06:16:13;;;;;;;29.73;19.13;;;;;;;;;;5072594;28;20508;-82
2022/01/22 06:18:40;;;;;;;33.15;20.08;;;;;;;;;;5087314;28;20447;-82
2022/01/22 06:21:08;;;;;;;31.58;20.80;;;;;;;;;;5083663;28;20866;-82
2022/01/22 06:23:36;;;;;;;31.95;20.80;;;;;;;;;;5068476;28;20443;-82
2022/01/22 06:26:04;;;;;;;33.28;20.83;;;;;;;;;;5064782;28;20411;-82
2022/01/22 06:28:32;;;;;;;32.25;21.05;;;;;;;;;;5067385;28;20479;-82
2022/01/22 06:31:00;;;;;;;30.92;21.27;;;;;;;;;;5067123;28;20405;-82
2022/01/22 06:33:28;;;;;;;31.93;20.83;;;;;;;;;;5067621;28;20401;-82
2022/01/22 06:35:55;;;;;;;32.70;21.10;;;;;;;;;;5067305;28;20773;-82
2022/01/22 06:38:22;;;;;;;35.33;21.48;;;;;;;;;;5066415;28;20460;-82
2022/01/22 06:43:47;;;;;;;37.63;22.65;;;;;;;;;;4984834;28;20543;-83
2022/01/22 06:46:16;;;;;;;37.70;23.08;;;;;;;;;;4985245;28;20421;-82
2022/01/22 06:48:42;;;;;;;37.40;23.63;;;;;;;;;;5020361;28;20406;-84
2022/01/22 06:51:10;;;;;;;35.83;23.27;;;;;;;;;;5064402;28;20813;-83
2022/01/22 06:53:40;;;;;;;35.97;23.80;;;;;;;;;;5064365;28;20802;-82
2022/01/22 06:56:09;;;;;;;43.65;25.73;;;;;;;;;;5066603;28;20515;-82
2022/01/22 06:58:36;;;;;;;52.88;29.88;;;;;;;;;;5065643;28;20807;-83
2022/01/22 07:01:03;;;;;;;56.83;33.70;;;;;;;;;;5066198;28;20409;-83
2022/01/22 07:03:31;;;;;;;61.35;38.80;;;;;;;;;;5064009;28;20412;-82
2022/01/22 07:05:58;;;;;;;61.92;38.33;;;;;;;;;;5065896;28;20420;-82
2022/01/22 07:08:25;;;;;;;64.43;40.58;;;;;;;;;;5065865;28;20424;-83
2022/01/22 07:10:51;;;;;;;64.60;40.60;;;;;;;;;;5066345;28;20770;-82
2022/01/22 07:13:18;;;;;;;63.05;40.20;;;;;;;;;;5066843;28;20543;-82
2022/01/22 07:15:45;;;;;;;80.18;47.53;;;;;;;;;;5066299;28;20433;-83
2022/01/22 07:18:13;;;;;;;57.13;37.63;;;;;;;;;;5066439;28;20460;-82
2022/01/22 07:20:43;;;;;;;57.72;37.80;;;;;;;;;;5066498;28;20467;-83
2022/01/22 07:23:31;;;;;;;59.63;38.00;;;;;;;;;;5066293;28;20402;-82
2022/01/22 07:25:58;;;;;;;58.10;36.08;;;;;;;;;;5065222;28;20895;-82
2022/01/22 07:28:25;;;;;;;73.18;36.47;;;;;;;;;;5065930;28;20410;-82
2022/01/22 07:30:52;;;;;;;71.78;33.70;;;;;;;;;;5064624;28;20402;-82
2022/01/22 07:33:20;;;;;;;84.18;34.35;;;;;;;;;;5065628;28;20405;-82
2022/01/22 07:35:49;;;;;;;66.78;33.70;;;;;;;;;;5065923;28;20456;-83
2022/01/22 07:38:16;;;;;;;55.93;32.43;;;;;;;;;;5065658;28;20874;-82
2022/01/22 07:40:43;;;;;;;74.53;32.63;;;;;;;;;;5062790;28;20402;-82
2022/01/22 07:43:10;;;;;;;107.72;32.28;;;;;;;;;;5065786;28;20459;-83
2022/01/22 07:45:37;;;;;;;101.88;33.28;;;;;;;;;;5062720;28;20452;-83
2022/01/22 07:48:04;;;;;;;110.83;34.23;;;;;;;;;;5065855;28;20808;-81
2022/01/22 07:50:31;;;;;;;117.43;37.03;;;;;;;;;;5065288;28;20406;-82
2022/01/22 07:53:01;;;;;;;167.40;38.25;;;;;;;;;;5065609;28;20889;-82
2022/01/22 07:55:28;;;;;;;132.63;38.75;;;;;;;;;;5065073;28;20478;-83
2022/01/22 07:57:55;;;;;;;128.77;36.70;;;;;;;;;;5065341;28;20878;-81
2022/01/22 08:00:21;;;;;;;120.67;39.20;;;;;;;;;;5064524;28;20420;-83
2022/01/22 08:02:48;;;;;;;126.57;37.25;;;;;;;;;;5064719;28;20402;-83
2022/01/22 08:05:16;;;;;;;130.07;37.70;;;;;;;;;;5064642;28;20436;-80
2022/01/22 08:07:44;;;;;;;144.88;37.92;;;;;;;;;;5065035;28;20778;-83
2022/01/22 08:10:14;;;;;;;140.63;38.77;;;;;;;;;;5065605;28;20429;-82
2022/01/22 08:12:42;;;;;;;104.60;37.53;;;;;;;;;;5064941;28;20410;-82
2022/01/22 08:15:11;;;;;;;116.32;36.75;;;;;;;;;;5065339;28;20410;-81
2022/01/22 08:17:39;;;;;;;78.28;35.47;;;;;;;;;;5062594;28;20488;-82
2022/01/22 08:20:07;;;;;;;98.32;37.05;;;;;;;;;;5065946;28;20406;-82
2022/01/22 08:22:34;;;;;;;69.82;35.05;;;;;;;;;;5065710;28;20866;-82
2022/01/22 08:25:01;;;;;;;87.38;37.47;;;;;;;;;;5065530;28;20429;-82
2022/01/22 08:27:41;;;;;;;83.80;36.28;;;;;;;;;;5062091;28;20438;-83
2022/01/22 08:30:13;;;;;;;79.40;36.08;;;;;;;;;;5065021;28;20460;-82
2022/01/22 08:38:05;;;;;;;65.63;34.25;;;;;;;;;;5064868;28;20441;-80
2022/01/22 08:40:32;;;;;;;63.85;35.17;;;;;;;;;;5064523;28;20485;-86
2022/01/22 08:43:01;;;;;;;82.47;37.80;;;;;;;;;;5065311;28;20405;-87
2022/01/22 08:45:28;;;;;;;69.45;35.88;;;;;;;;;;5065662;28;20459;-86
2022/01/22 08:47:54;;;;;;;66.50;36.22;;;;;;;;;;5064766;28;20893;-85
2022/01/22 08:50:23;;;;;;;66.70;36.38;;;;;;;;;;5065268;28;20393;-86
2022/01/22 08:52:50;;;;;;;66.45;35.22;;;;;;;;;;5065607;28;20508;-84
2022/01/22 08:55:17;;;;;;;68.28;34.58;;;;;;;;;;5065062;28;20747;-87
2022/01/22 08:57:45;;;;;;;59.75;33.75;;;;;;;;;;5065423;28;20927;-86
2022/01/22 09:00:14;;;;;;;62.78;34.72;;;;;;;;;;5065752;28;20774;-86
2022/01/22 09:02:43;;;;;;;62.97;35.80;;;;;;;;;;5066919;28;20410;-88
2022/01/22 09:05:10;;;;;;;64.90;35.58;;;;;;;;;;5069493;28;20405;-87
2022/01/22 09:07:37;;;;;;;63.43;34.07;;;;;;;;;;5078026;28;20422;-86
2022/01/22 09:10:06;;;;;;;62.08;34.85;;;;;;;;;;5080090;28;21063;-87
2022/01/22 09:12:33;;;;;;;66.03;35.58;;;;;;;;;;5064328;28;20820;-85
2022/01/22 09:15:00;;;;;;;71.25;37.45;;;;;;;;;;5064691;28;20493;-86
2022/01/22 09:17:28;;;;;;;66.35;36.13;;;;;;;;;;5064124;28;20824;-85
2022/01/22 09:19:57;;;;;;;68.70;36.65;;;;;;;;;;5064757;28;20491;-85
2022/01/22 09:22:25;;;;;;;66.05;35.75;;;;;;;;;;5064948;28;20405;-87
2022/01/22 09:24:52;;;;;;;64.63;35.53;;;;;;;;;;5062746;28;20769;-87
2022/01/22 09:27:20;;;;;;;77.40;36.00;;;;;;;;;;5064616;28;20521;-87
2022/01/22 09:29:48;;;;;;;74.28;36.45;;;;;;;;;;5064233;28;20413;-87
2022/01/22 09:32:15;;;;;;;83.70;37.58;;;;;;;;;;5064515;28;20493;-87
2022/01/22 09:34:46;;;;;;;81.50;38.30;;;;;;;;;;5064865;28;20406;-88
2022/01/22 09:37:12;;;;;;;76.88;38.40;;;;;;;;;;5063616;28;20513;-85
2022/01/22 09:39:40;;;;;;;77.20;37.97;;;;;;;;;;5063974;28;20402;-86
2022/01/22 09:42:07;;;;;;;76.88;38.72;;;;;;;;;;5064097;28;20489;-86
2022/01/22 09:44:38;;;;;;;70.80;37.33;;;;;;;;;;5063828;28;20440;-85
2022/01/22 09:47:06;;;;;;;68.90;37.10;;;;;;;;;;5063773;28;20406;-87
2022/01/22 09:49:33;;;;;;;70.00;37.97;;;;;;;;;;5063585;28;20401;-86
2022/01/22 09:52:01;;;;;;;71.35;39.08;;;;;;;;;;5064303;28;20816;-86
2022/01/22 09:54:28;;;;;;;69.07;37.92;;;;;;;;;;5062362;28;20880;-87
2022/01/22 09:56:57;;;;;;;70.15;38.00;;;;;;;;;;5063852;28;20951;-87
2022/01/22 09:59:23;;;;;;;67.30;37.58;;;;;;;;;;5061681;28;20414;-87
2022/01/22 10:01:50;;;;;;;70.68;38.72;;;;;;;;;;5063641;28;20423;-85
2022/01/22 10:04:34;;;;;;;71.15;39.33;;;;;;;;;;5064355;28;20539;-87
2022/01/22 10:07:03;;;;;;;68.25;39.53;;;;;;;;;;5063446;28;20406;-87
2022/01/22 10:09:34;;;;;;;69.28;38.92;;;;;;;;;;5063302;28;20414;-86
2022/01/22 10:12:10;;;;;;;69.85;39.70;;;;;;;;;;5060574;28;20485;-85
2022/01/22 10:15:04;;;;;;;76.45;40.92;;;;;;;;;;5063912;28;20473;-86
2022/01/22 10:17:43;;;;;;;70.75;39.72;;;;;;;;;;5062970;28;20414;-87
2022/01/22 10:20:32;;;;;;;75.28;41.78;;;;;;;;;;5062827;28;20398;-88
2022/01/22 10:23:02;;;;;;;76.90;42.00;;;;;;;;;;5059540;28;21071;-85
2022/01/22 10:25:35;;;;;;;72.50;40.50;;;;;;;;;;5057378;28;20415;-87
2022/01/22 10:28:04;;;;;;;70.20;41.13;;;;;;;;;;5045838;28;21307;-86
2022/01/22 10:30:37;;;;;;;73.60;41.30;;;;;;;;;;5045887;28;20560;-90
2022/01/22 10:33:20;;;;;;;71.13;41.53;;;;;;;;;;5047309;28;20748;-88
2022/01/22 10:35:47;;;;;;;74.43;43.05;;;;;;;;;;5043552;28;20419;-88
2022/01/22 10:38:17;;;;;;;78.75;43.17;;;;;;;;;;5046600;28;20883;-89
2022/01/22 10:40:45;;;;;;;71.68;41.53;;;;;;;;;;5043889;28;20499;-87
2022/01/22 10:43:17;;;;;;;73.00;41.33;;;;;;;;;;5048056;28;20411;-76
2022/01/22 10:46:01;;;;;;;71.70;39.85;;;;;;;;;;5043175;28;20403;-91
2022/01/22 10:48:28;;;;;;;81.60;43.25;;;;;;;;;;5050046;28;20412;-88
2022/01/22 10:51:04;;;;;;;79.55;42.15;;;;;;;;;;5050082;28;20412;-91
2022/01/22 10:53:42;;;;;;;80.35;43.55;;;;;;;;;;5052101;28;20895;-91
2022/01/22 10:56:10;;;;;;;83.40;43.20;;;;;;;;;;5051528;28;20416;-91
2022/01/22 10:58:51;;;;;;;82.63;43.45;;;;;;;;;;5055106;28;20419;-91
2022/01/22 11:01:18;;;;;;;76.55;40.97;;;;;;;;;;5054048;28;20446;-91
2022/01/22 11:03:45;;;;;;;74.47;39.45;;;;;;;;;;5053469;28;20949;-92
2022/01/22 11:06:27;;;;;;;72.82;40.30;;;;;;;;;;5055712;28;20404;-94
2022/01/22 11:08:56;;;;;;;72.38;39.42;;;;;;;;;;5051903;28;20490;-92
2022/01/22 11:11:24;;;;;;;66.03;39.22;;;;;;;;;;5054547;28;20404;-95
2022/01/22 11:13:56;;;;;;;74.65;41.92;;;;;;;;;;5058603;28;20415;-95
2022/01/22 11:16:34;;;;;;;75.45;42.97;;;;;;;;;;5058380;28;20415;-95
2022/01/22 11:19:13;;;;;;;78.10;41.90;;;;;;;;;;5052808;28;20411;-90
2022/01/22 11:32:12;;;;;;;65.95;38.22;;;;;;;;;;5096385;28;20448;-96
2022/01/22 11:34:41;;;;;;;68.28;37.75;;;;;;;;;;5068297;28;20425;-82
2022/01/22 11:37:19;;;;;;;69.10;39.22;;;;;;;;;;5091877;28;20394;-96
2022/01/22 11:39:46;;;;;;;66.32;37.85;;;;;;;;;;5088793;28;20390;-80
2022/01/22 11:42:14;;;;;;;64.78;38.03;;;;;;;;;;5087914;28;20496;-84
2022/01/22 11:44:49;;;;;;;67.27;39.57;;;;;;;;;;5066334;28;20870;-82
2022/01/22 11:47:20;;;;;;;63.60;38.00;;;;;;;;;;5069636;28;20486;-87
2022/01/22 11:50:08;;;;;;;66.53;37.15;;;;;;;;;;5066144;28;20512;-76
2022/01/22 11:52:37;;;;;;;66.70;38.15;;;;;;;;;;5069868;28;20481;-84
2022/01/22 11:55:09;;;;;;;74.72;42.60;;;;;;;;;;5067879;28;20410;-84
2022/01/22 11:57:36;;;;;;;64.15;35.92;;;;;;;;;;5063617;28;20422;-87
2022/01/22 12:00:22;;;;;;;64.93;37.33;;;;;;;;;;5066837;28;20398;-87
2022/01/22 12:03:21;;;;;;;66.68;38.70;;;;;;;;;;5065093;28;20882;-85
2022/01/22 12:06:10;;;;;;;62.60;37.20;;;;;;;;;;5066752;28;20441;-87
2022/01/22 12:09:07;;;;;;;59.70;35.53;;;;;;;;;;5066712;28;20493;-87
2022/01/22 12:14:54;;;;;;;49.83;29.13;;;;;;;;;;5079030;28;20420;-91
2022/01/22 12:18:00;;;;;;;50.92;29.30;;;;;;;;;;5006353;28;20463;-84
2022/01/22 12:23:53;;;;;;;41.70;27.30;;;;;;;;;;5069466;28;20397;-94
2022/01/22 12:26:55;;;;;;;48.47;28.67;;;;;;;;;;5071063;28;20418;-93
2022/01/22 12:29:45;;;;;;;47.80;29.40;;;;;;;;;;5049817;28;20481;-93
2022/01/22 12:32:34;;;;;;;39.27;26.87;;;;;;;;;;5049644;28;20400;-94
2022/01/22 12:35:09;;;;;;;36.37;22.87;;;;;;;;;;5055982;28;20444;-94
2022/01/22 12:37:51;;;;;;;35.75;23.70;;;;;;;;;;5063985;28;20422;-93
2022/01/22 12:40:34;;;;;;;40.55;27.00;;;;;;;;;;5059494;28;20410;-93
2022/01/22 12:43:06;;;;;;;39.65;24.95;;;;;;;;;;5073810;28;20475;-93
2022/01/22 12:45:35;;;;;;;37.72;25.10;;;;;;;;;;5072999;28;20437;-95
2022/01/22 12:48:03;;;;;;;34.45;22.83;;;;;;;;;;5064733;28;20485;-93
2022/01/22 12:50:33;;;;;;;34.75;23.38;;;;;;;;;;5068141;28;20459;-93
2022/01/22 12:53:09;;;;;;;38.55;26.08;;;;;;;;;;5066435;28;20458;-83
2022/01/22 12:58:21;;;;;;;40.28;27.48;;;;;;;;;;5042658;28;20463;-88
2022/01/22 13:00:50;;;;;;;41.42;27.77;;;;;;;;;;5071077;28;20529;-95
2022/01/22 13:03:32;;;;;;;35.58;24.45;;;;;;;;;;5067158;28;20405;-93
2022/01/22 13:05:59;;;;;;;37.35;24.48;;;;;;;;;;5066099;28;20405;-94
2022/01/22 13:08:33;;;;;;;37.30;24.20;;;;;;;;;;5069207;28;20418;-95
2022/01/22 13:11:02;;;;;;;36.78;24.90;;;;;;;;;;5067738;28;20951;-95
2022/01/22 13:13:30;;;;;;;36.55;24.63;;;;;;;;;;5066670;28;20406;-94
2022/01/22 13:16:02;;;;;;;39.03;25.27;;;;;;;;;;5069492;28;20417;-94
2022/01/22 13:18:40;;;;;;;35.28;23.85;;;;;;;;;;5067388;28;20433;-95
2022/01/22 13:21:08;;;;;;;36.88;24.17;;;;;;;;;;5076681;28;20504;-93
2022/01/22 13:23:37;;;;;;;33.75;24.52;;;;;;;;;;5068195;28;20782;-94
2022/01/22 13:26:04;;;;;;;37.45;24.77;;;;;;;;;;5067804;28;21203;-95
2022/01/22 13:28:33;;;;;;;35.65;24.63;;;;;;;;;;5067764;28;20459;-95
2022/01/22 13:31:05;;;;;;;35.75;24.45;;;;;;;;;;5069105;28;20463;-93
2022/01/22 13:33:39;;;;;;;34.75;23.38;;;;;;;;;;5066927;28;20925;-95
2022/01/22 13:39:21;;;;;;;33.47;23.90;;;;;;;;;;5064755;28;20746;-92
2022/01/22 13:50:09;;;;;;;31.38;22.48;;;;;;;;;;5047324;28;20811;-92
2022/01/22 13:52:36;;;;;;;36.22;23.85;;;;;;;;;;5066624;28;20445;-93
2022/01/22 13:55:06;;;;;;;32.33;22.63;;;;;;;;;;5068255;28;20436;-94
2022/01/22 13:57:37;;;;;;;30.30;22.60;;;;;;;;;;5066343;28;20942;-93
2022/01/22 14:00:11;;;;;;;30.52;22.40;;;;;;;;;;5069888;28;20424;-93
2022/01/22 14:03:02;;;;;;;34.30;22.75;;;;;;;;;;5070845;28;20493;-93
2022/01/22 14:05:30;;;;;;;31.73;22.60;;;;;;;;;;5061677;28;20912;-93
2022/01/22 14:08:00;;;;;;;27.70;21.20;;;;;;;;;;5070213;28;20398;-94
2022/01/22 14:10:29;;;;;;;29.63;22.63;;;;;;;;;;5070484;28;20473;-92
2022/01/22 14:13:05;;;;;;;29.05;22.73;;;;;;;;;;5070028;28;20770;-94
2022/01/22 14:15:36;;;;;;;28.80;22.58;;;;;;;;;;5070753;28;20405;-92
2022/01/22 14:18:13;;;;;;;30.27;23.00;;;;;;;;;;5070460;28;20406;-94
2022/01/22 14:20:43;;;;;;;30.40;22.75;;;;;;;;;;5068475;28;20430;-92
2022/01/22 14:23:11;;;;;;;28.80;21.55;;;;;;;;;;5072595;28;21089;-95
2022/01/22 14:25:58;;;;;;;29.10;22.08;;;;;;;;;;5073933;28;20436;-95
2022/01/22 14:28:37;;;;;;;30.80;22.58;;;;;;;;;;5069210;28;20472;-96
2022/01/22 14:31:19;;;;;;;33.78;23.77;;;;;;;;;;5073619;28;20777;-95
2022/01/22 14:33:46;;;;;;;32.20;22.63;;;;;;;;;;5075751;28;20507;-95
2022/01/22 14:36:16;;;;;;;33.78;23.48;;;;;;;;;;5076666;28;20409;-96
2022/01/22 14:38:47;;;;;;;29.98;22.27;;;;;;;;;;5072485;28;20498;-75
2022/01/22 14:46:52;;;;;;;33.85;23.75;;;;;;;;;;5064273;28;20394;-78
2022/01/22 14:49:23;;;;;;;34.20;23.98;;;;;;;;;;5069399;28;20440;-93
2022/01/22 14:51:50;;;;;;;32.05;23.45;;;;;;;;;;5068834;28;20398;-92
2022/01/22 14:54:18;;;;;;;32.90;22.80;;;;;;;;;;5067653;28;20912;-90
2022/01/22 14:56:47;;;;;;;34.55;23.38;;;;;;;;;;5065970;28;20430;-90
2022/01/22 14:59:14;;;;;;;35.40;23.33;;;;;;;;;;5072885;28;20484;-90
2022/01/22 15:01:41;;;;;;;35.30;24.67;;;;;;;;;;5073172;28;20465;-89
2022/01/22 15:04:08;;;;;;;35.90;25.50;;;;;;;;;;5072407;28;20401;-89
2022/01/22 15:06:35;;;;;;;35.45;24.88;;;;;;;;;;5066829;28;20488;-90
2022/01/22 15:09:04;;;;;;;36.92;25.65;;;;;;;;;;5067809;28;21137;-90
2022/01/22 15:11:33;;;;;;;38.73;27.83;;;;;;;;;;5067491;28;20498;-92
2022/01/22 15:14:02;;;;;;;37.60;26.27;;;;;;;;;;5068326;28;20433;-91
2022/01/22 15:16:36;;;;;;;37.40;25.35;;;;;;;;;;5069489;28;20410;-91
2022/01/22 15:19:04;;;;;;;36.65;25.15;;;;;;;;;;5067566;28;20425;-90
2022/01/22 15:21:31;;;;;;;37.22;26.60;;;;;;;;;;5069298;28;20416;-91
2022/01/22 15:23:58;;;;;;;37.17;24.97;;;;;;;;;;5069623;28;20409;-93
2022/01/22 15:26:25;;;;;;;38.30;26.17;;;;;;;;;;5069110;28;20821;-93
2022/01/22 15:28:53;;;;;;;40.38;27.23;;;;;;;;;;5070104;28;20459;-92
2022/01/22 15:31:33;;;;;;;37.85;26.48;;;;;;;;;;5070243;28;20410;-93
2022/01/22 15:34:11;;;;;;;37.25;25.40;;;;;;;;;;5069587;28;20497;-92
2022/01/22 15:36:38;;;;;;;42.25;26.92;;;;;;;;;;5069984;28;20398;-92
2022/01/22 15:39:06;;;;;;;38.60;27.00;;;;;;;;;;5050173;28;20453;-93
2022/01/22 15:41:34;;;;;;;37.95;26.63;;;;;;;;;;5061551;28;21171;-94
2022/01/22 15:44:04;;;;;;;39.80;26.88;;;;;;;;;;5070594;28;20449;-94
2022/01/22 15:46:32;;;;;;;40.45;27.20;;;;;;;;;;5069440;28;20981;-92
2022/01/22 15:49:00;;;;;;;39.08;26.88;;;;;;;;;;5052361;28;20453;-93
2022/01/22 15:51:27;;;;;;;39.13;26.13;;;;;;;;;;5070704;28;20413;-92
2022/01/22 15:53:54;;;;;;;36.85;26.80;;;;;;;;;;5071930;28;20870;-93
2022/01/22 15:56:20;;;;;;;45.35;30.23;;;;;;;;;;5071415;28;21250;-93
2022/01/22 15:58:47;;;;;;;41.22;29.30;;;;;;;;;;5081322;28;20450;-89
2022/01/22 16:01:15;;;;;;;42.75;29.30;;;;;;;;;;5080544;28;20409;-90
2022/01/22 16:03:45;;;;;;;50.20;31.80;;;;;;;;;;5072036;28;20410;-90
2022/01/22 16:06:19;;;;;;;49.42;32.75;;;;;;;;;;5067538;28;20406;-90
2022/01/22 16:08:47;;;;;;;45.70;31.45;;;;;;;;;;5068149;28;20968;-90
2022/01/22 16:11:15;;;;;;;49.47;32.53;;;;;;;;;;5063926;28;20481;-90
2022/01/22 16:13:42;;;;;;;47.42;31.83;;;;;;;;;;5063388;28;20475;-91
2022/01/22 16:16:10;;;;;;;46.70;30.95;;;;;;;;;;5068055;28;20472;-94